Point Lay Lrrs Airport
PPIZ : now visible

Aeroporto :











RITROVATECI SU...

 
LOGIN :

Iscrizione | Disclaimer

   EN    FR    IT 

 









Sommario :    VFR   VFR Marginale   IFR   IFR Intensivo   IFR Molto Intensivo
Visibilità : 
Base nubi : 
>= 8 km
>= 3000ft
5 / 8 km
1000 / 3000 ft
1500m / 5 km
500 / 1000 ft
800 / 1500m
200 / 500 ft
< 800m
< 200 ft
Simboli :   Temporali  Nebbia  Neve Forte  Precipitazioni Forti  Vento > 20 kt






- Altitudine del aeroporto : 22 ft
- Codice IATA : PIZ


PPIZ - Point Lay Lrrs

ULTIMO METAR :
  • 011856Z AUTO 06026G32KT 10SM 03/M01 A2970 RMK AO2 PK WND 06035/1800 SLP061 T00281011 $

METARs OBSOLETI :
  • 011756Z AUTO 06028G33KT 10SM 02/M01 A2969 RMK AO2 PK WND 07037/1729 SLP058 60000 T00221011 10022 20000 55004 FZRANO $
  • 011656Z AUTO 07031G36KT 10SM 01/M01 A2968 RMK AO2 PK WND 06036/1655 SLP055 T00111011 FZRANO $

TAF N/A
FIR PAZA / America del Nord



MetMap, La meteo Aeronautica in un colpo d'occhio ! - Copyright ORBIFLY Dicembre 2007 - Disclaimer

ORBIFLY MET'MAP TEAM :

Programmazione e sviluppo : Alexandra Zaïnal
Concezione : Baudouin d'Aumeries
Aiuto per la programmazione : Marc-Olivier Méhu
Supporto tecnico e logistico : Manuel Goepfert
Aiuto per la traduzione : Arnaldo La Scala

Contatto : metmap@orbifly.com




FONTI E CREDITI :

   NOAA       Earth
Advisory